Time;durP1;ratioP1;P1;durP2;ratioP2;P2;SDS_P1;SDS_P2;PMS_P1;PMS_P2;Temp;Humidity;BMP_temperature;BMP_pressure;BME280_temperature;BME280_humidity;BME280_pressure;Samples;Min_cycle;Max_cycle;Signal;HPM_P1;HPM_P2
2022/06/09 00:01:17;;;;;;;5.17;2.60;;;16.00;1.00;;;;;;5035736;28;20499;-88
2022/06/09 00:04:08;;;;;;;6.23;2.90;;;16.00;1.00;;;;;;5048676;28;20436;-88
2022/06/09 00:06:41;;;;;;;16.27;3.07;;;16.00;1.00;;;;;;5087016;28;20935;-88
2022/06/09 00:09:07;;;;;;;5.87;2.40;;;15.80;1.00;;;;;;5082840;28;20469;-88
2022/06/09 00:11:37;;;;;;;3.83;3.43;;;15.90;1.00;;;;;;5077031;28;20421;-88
2022/06/09 00:14:05;;;;;;;5.20;2.50;;;15.90;1.00;;;;;;5040350;28;20818;-88
2022/06/09 00:16:31;;;;;;;3.23;2.87;;;15.90;1.00;;;;;;5077135;28;20911;-88
2022/06/09 00:18:56;;;;;;;2.67;2.47;;;15.80;1.00;;;;;;5083319;28;20413;-88
2022/06/09 00:21:23;;;;;;;4.70;2.53;;;15.90;1.00;;;;;;5078282;28;20183;-88
2022/06/09 00:23:49;;;;;;;3.97;2.43;;;15.80;1.00;;;;;;5084443;28;20637;-88
2022/06/09 00:26:15;;;;;;;4.40;3.00;;;15.70;1.00;;;;;;5063768;28;20487;-88
2022/06/09 00:28:40;;;;;;;3.57;3.27;;;15.70;1.00;;;;;;5047795;28;20413;-88
2022/06/09 00:31:07;;;;;;;4.20;2.80;;;15.70;1.00;;;;;;5039338;28;20461;-88
2022/06/09 00:33:33;;;;;;;3.73;3.40;;;15.70;1.00;;;;;;5049401;28;20207;-88
2022/06/09 00:36:03;;;;;;;6.07;3.57;;;15.60;1.00;;;;;;5040546;28;20430;-88
2022/06/09 00:38:28;;;;;;;3.40;3.10;;;15.60;1.00;;;;;;5048958;28;20188;-88
2022/06/09 00:40:59;;;;;;;5.97;3.10;;;15.60;1.00;;;;;;5041915;28;20409;-88
2022/06/09 00:43:28;;;;;;;3.10;2.87;;;15.70;1.00;;;;;;5047881;28;20180;-89
2022/06/09 00:46:21;;;;;;;3.30;3.10;;;15.60;1.00;;;;;;5054949;28;20457;-88
2022/06/09 00:48:52;;;;;;;8.23;3.47;;;15.60;1.00;;;;;;5017157;28;20394;-88
2022/06/09 00:51:35;;;;;;;5.30;3.77;;;15.60;1.00;;;;;;5000754;28;20446;-88
2022/06/09 00:54:14;;;;;;;3.47;3.17;;;15.60;1.00;;;;;;4998043;28;20471;-88
2022/06/09 00:57:00;;;;;;;3.53;3.10;;;15.60;1.00;;;;;;5011509;28;20423;-88
2022/06/09 00:59:26;;;;;;;5.47;3.60;;;15.60;1.00;;;;;;4999089;28;20539;-88
2022/06/09 01:01:58;;;;;;;6.80;3.30;;;15.60;1.00;;;;;;4995291;28;20980;-88
2022/06/09 01:04:26;;;;;;;5.17;3.20;;;15.50;1.00;;;;;;4998049;28;20431;-88
2022/06/09 01:06:56;;;;;;;6.77;3.60;;;15.50;1.00;;;;;;4997851;28;20458;-88
2022/06/09 01:09:27;;;;;;;10.03;3.67;;;15.40;1.00;;;;;;4998171;28;20902;-88
2022/06/09 01:11:55;;;;;;;4.20;3.07;;;15.30;1.00;;;;;;5004607;28;20445;-88
2022/06/09 01:14:29;;;;;;;4.00;2.97;;;15.30;1.00;;;;;;5005227;28;20424;-88
2022/06/09 01:17:16;;;;;;;5.70;3.30;;;15.40;1.00;;;;;;4999136;28;20999;-88
2022/06/09 01:19:54;;;;;;;5.20;3.13;;;15.10;1.00;;;;;;5001918;28;20432;-88
2022/06/09 01:22:44;;;;;;;5.90;3.40;;;15.10;1.00;;;;;;5004313;28;20465;-88
2022/06/09 01:25:38;;;;;;;3.77;3.50;;;15.00;1.00;;;;;;5022816;28;20524;-88
2022/06/09 01:28:41;;;;;;;5.80;3.17;;;14.90;1.00;;;;;;5047439;28;20416;-89
2022/06/09 01:31:21;;;;;;;3.37;3.17;;;14.80;1.00;;;;;;5032420;28;20461;-89
2022/06/09 01:34:14;;;;;;;3.23;2.93;;;14.60;1.00;;;;;;5089874;28;20494;-89
2022/06/09 01:36:49;;;;;;;6.83;3.50;;;14.60;1.00;;;;;;5081958;28;20417;-89
2022/06/09 01:39:15;;;;;;;3.37;2.83;;;14.60;1.00;;;;;;5075229;28;20435;-89
2022/06/09 01:41:48;;;;;;;5.10;3.00;;;14.60;1.00;;;;;;5045443;28;20397;-89
2022/06/09 01:44:16;;;;;;;14.43;3.57;;;14.50;1.00;;;;;;5037750;28;20183;-89
2022/06/09 01:46:45;;;;;;;9.03;3.23;;;14.40;1.00;;;;;;5049094;28;20704;-89
2022/06/09 01:49:16;;;;;;;19.40;4.00;;;14.40;1.00;;;;;;5046341;28;20441;-89
2022/06/09 01:51:43;;;;;;;3.10;2.80;;;14.30;1.00;;;;;;5050536;28;20472;-89
2022/06/09 01:54:18;;;;;;;6.10;3.60;;;14.30;1.00;;;;;;5058692;28;20438;-89
2022/06/09 01:56:52;;;;;;;6.90;3.57;;;14.20;1.00;;;;;;5087003;28;20453;-88
2022/06/09 01:59:25;;;;;;;8.70;3.30;;;14.10;1.00;;;;;;5081670;28;20420;-88
2022/06/09 02:02:12;;;;;;;5.67;3.10;;;14.10;1.00;;;;;;5087736;28;20421;-89
2022/06/09 02:04:42;;;;;;;5.57;3.50;;;14.00;1.00;;;;;;5077576;28;20407;-89
2022/06/09 02:07:09;;;;;;;5.57;3.03;;;13.90;1.00;;;;;;5070670;28;20433;-88
2022/06/09 02:09:37;;;;;;;8.40;3.67;;;13.80;1.00;;;;;;5083216;28;20421;-88
2022/06/09 02:12:13;;;;;;;8.03;3.33;;;13.80;1.00;;;;;;5082168;28;20464;-89
2022/06/09 02:14:43;;;;;;;17.43;3.70;;;13.70;1.00;;;;;;5068039;28;20421;-89
2022/06/09 02:17:09;;;;;;;3.93;3.40;;;13.70;1.00;;;;;;5076727;28;20927;-89
2022/06/09 02:19:37;;;;;;;6.10;3.57;;;13.60;1.00;;;;;;5069656;28;20508;-89
2022/06/09 02:22:08;;;;;;;5.60;3.23;;;13.60;1.00;;;;;;5044298;28;20193;-89
2022/06/09 02:24:34;;;;;;;3.30;3.00;;;13.60;1.00;;;;;;5075463;28;20453;-89
2022/06/09 02:27:00;;;;;;;3.87;3.40;;;13.50;1.00;;;;;;5074636;28;20429;-89
2022/06/09 02:29:26;;;;;;;4.43;3.17;;;13.50;1.00;;;;;;5087632;28;20942;-89
2022/06/09 02:31:52;;;;;;;6.23;2.80;;;13.40;1.00;;;;;;5063942;28;20472;-89
2022/06/09 02:34:18;;;;;;;4.20;3.40;;;13.30;1.00;;;;;;5055467;28;20507;-89
2022/06/09 02:36:44;;;;;;;3.77;3.37;;;13.20;1.00;;;;;;5076655;28;20268;-89
2022/06/09 02:39:10;;;;;;;5.80;3.50;;;13.20;1.00;;;;;;5079098;28;20651;-90
2022/06/09 02:41:36;;;;;;;8.33;4.10;;;13.10;1.00;;;;;;5045968;28;20512;-88
2022/06/09 02:44:01;;;;;;;4.13;3.73;;;13.10;1.00;;;;;;5079835;28;20413;-88
2022/06/09 02:46:32;;;;;;;4.67;3.70;;;13.00;1.00;;;;;;5046555;28;20456;-88
2022/06/09 02:48:58;;;;;;;10.43;3.50;;;13.00;1.00;;;;;;5046281;28;20188;-88
2022/06/09 02:51:28;;;;;;;9.43;3.90;;;13.00;1.00;;;;;;5048273;28;20991;-88
2022/06/09 02:54:05;;;;;;;7.60;3.87;;;13.00;1.00;;;;;;5058153;28;20433;-88
2022/06/09 02:56:31;;;;;;;5.30;3.67;;;12.90;1.00;;;;;;5052899;28;20451;-88
2022/06/09 02:58:57;;;;;;;6.80;4.10;;;12.80;1.00;;;;;;5046997;28;20469;-88
2022/06/09 03:01:24;;;;;;;4.73;3.97;;;12.90;1.00;;;;;;5084210;28;20417;-88
2022/06/09 03:03:50;;;;;;;6.20;3.93;;;12.70;1.00;;;;;;5081251;28;20429;-88
2022/06/09 03:06:16;;;;;;;6.00;4.67;;;12.80;1.00;;;;;;5085175;28;20403;-89
2022/06/09 03:08:41;;;;;;;6.83;4.43;;;12.60;1.00;;;;;;5082603;28;20443;-88
2022/06/09 03:11:10;;;;;;;6.00;3.83;;;12.70;1.00;;;;;;5088420;28;20217;-89
2022/06/09 03:13:36;;;;;;;9.33;4.20;;;12.60;1.00;;;;;;5044042;28;20186;-89
2022/06/09 03:16:03;;;;;;;6.27;3.77;;;12.60;1.00;;;;;;5036347;28;20479;-89
2022/06/09 03:18:28;;;;;;;5.17;4.23;;;12.50;1.00;;;;;;5045449;28;20437;-89
2022/06/09 03:20:56;;;;;;;5.23;4.40;;;12.50;1.00;;;;;;5082715;28;20422;-90
2022/06/09 03:23:22;;;;;;;5.37;4.33;;;12.60;1.00;;;;;;5077571;28;20538;-89
2022/06/09 03:25:50;;;;;;;7.43;4.17;;;12.60;1.00;;;;;;5067814;28;20430;-89
2022/06/09 03:28:16;;;;;;;13.80;5.13;;;12.50;1.00;;;;;;5050552;28;20187;-89
2022/06/09 03:30:42;;;;;;;7.63;4.97;;;12.60;1.00;;;;;;5084717;28;20437;-89
2022/06/09 03:33:08;;;;;;;10.00;4.50;;;12.70;1.00;;;;;;5083707;28;20421;-89
2022/06/09 03:35:34;;;;;;;15.73;4.67;;;12.50;1.00;;;;;;5085827;28;20426;-89
2022/06/09 03:38:00;;;;;;;8.53;4.93;;;12.70;1.00;;;;;;5077931;28;20618;-89
2022/06/09 03:40:28;;;;;;;11.03;4.73;;;12.60;1.00;;;;;;5040958;28;20429;-89
2022/06/09 03:42:54;;;;;;;8.27;5.00;;;12.60;1.00;;;;;;5046467;28;20183;-88
2022/06/09 03:45:21;;;;;;;10.57;5.03;;;12.60;1.00;;;;;;5014191;28;20442;-88
2022/06/09 03:47:47;;;;;;;6.70;5.30;;;12.70;1.00;;;;;;5066051;28;20541;-86
2022/06/09 03:50:22;;;;;;;9.07;4.70;;;12.70;1.00;;;;;;5065315;28;20766;-82
2022/06/09 03:52:49;;;;;;;5.77;4.60;;;12.70;1.00;;;;;;5054174;28;20530;-82
2022/06/09 03:55:15;;;;;;;13.53;4.70;;;12.80;1.00;;;;;;5061566;28;20419;-82
2022/06/09 03:57:41;;;;;;;7.07;5.13;;;12.70;1.00;;;;;;5052382;28;20804;-83
2022/06/09 04:00:12;;;;;;;10.10;4.73;;;12.70;1.00;;;;;;5069576;28;20529;-80
2022/06/09 04:02:38;;;;;;;9.63;5.47;;;12.70;1.00;;;;;;5060483;28;20193;-82
2022/06/09 04:05:04;;;;;;;10.23;4.43;;;12.70;1.00;;;;;;5068872;28;20846;-82
2022/06/09 04:07:30;;;;;;;11.83;5.80;;;12.70;1.00;;;;;;5070007;28;20532;-82
2022/06/09 04:09:55;;;;;;;8.70;5.13;;;12.80;1.00;;;;;;5066860;28;20451;-82
2022/06/09 04:12:21;;;;;;;10.97;6.23;;;12.80;1.00;;;;;;5087620;28;20301;-82
2022/06/09 04:14:47;;;;;;;6.27;5.70;;;12.90;1.00;;;;;;5039527;28;20256;-83
2022/06/09 04:17:13;;;;;;;10.30;5.43;;;12.90;1.00;;;;;;5038717;28;20190;-82
2022/06/09 04:19:39;;;;;;;17.17;5.50;;;12.90;1.00;;;;;;5067696;28;20270;-82
2022/06/09 04:22:06;;;;;;;9.53;5.60;;;12.90;1.00;;;;;;5060477;28;20432;-82
2022/06/09 04:24:32;;;;;;;6.37;5.00;;;13.00;1.00;;;;;;5068840;28;20411;-82
2022/06/09 04:26:58;;;;;;;5.37;4.73;;;13.00;1.00;;;;;;5076394;28;20437;-81
2022/06/09 04:29:24;;;;;;;7.60;5.00;;;13.10;1.00;;;;;;5070884;28;20221;-82
2022/06/09 04:31:49;;;;;;;8.90;4.90;;;13.20;1.00;;;;;;5043760;28;20221;-82
2022/06/09 04:34:15;;;;;;;8.63;4.80;;;13.20;1.00;;;;;;5054460;28;20175;-82
2022/06/09 04:36:41;;;;;;;8.17;4.97;;;13.20;1.00;;;;;;5062038;28;20569;-84
2022/06/09 04:39:09;;;;;;;6.73;4.80;;;13.20;1.00;;;;;;5065802;28;20263;-84
2022/06/09 04:41:35;;;;;;;8.63;5.30;;;13.30;1.00;;;;;;5080788;28;20856;-86
2022/06/09 04:44:00;;;;;;;6.77;5.03;;;13.30;1.00;;;;;;5083043;28;20457;-86
2022/06/09 04:46:26;;;;;;;12.90;4.80;;;13.40;1.00;;;;;;5060895;28;20429;-86
2022/06/09 04:48:52;;;;;;;11.63;5.20;;;13.40;1.00;;;;;;5066538;28;20187;-86
2022/06/09 04:51:20;;;;;;;7.60;5.10;;;13.50;1.00;;;;;;5068677;28;20206;-85
2022/06/09 04:53:47;;;;;;;11.23;5.57;;;13.50;1.00;;;;;;5076977;28;20418;-86
2022/06/09 04:56:32;;;;;;;11.10;5.33;;;13.70;1.00;;;;;;5039533;28;20983;-86
2022/06/09 04:58:58;;;;;;;6.00;5.07;;;13.70;1.00;;;;;;5041426;28;20940;-84
2022/06/09 05:01:38;;;;;;;22.73;5.97;;;13.70;1.00;;;;;;5081349;28;20463;-83
2022/06/09 05:04:14;;;;;;;14.23;5.47;;;13.80;1.00;;;;;;5061529;28;20191;-84
2022/06/09 05:07:08;;;;;;;6.90;4.67;;;13.90;1.00;;;;;;5058684;28;20454;-83
2022/06/09 05:13:15;;;;;;;7.80;4.80;;;13.90;1.00;;;;;;5044046;28;21766;-83
2022/06/09 05:19:02;;;;;;;10.37;5.40;;;14.00;1.00;;;;;;5060993;28;20423;-82
2022/06/09 05:21:56;;;;;;;14.00;6.00;;;14.00;1.00;;;;;;5064425;28;20813;-84
2022/06/09 05:24:26;;;;;;;11.03;4.93;;;14.00;1.00;;;;;;5040292;28;20183;-84
2022/06/09 05:27:38;;;;;;;7.00;5.40;;;14.10;1.00;;;;;;5039614;28;20420;-77
2022/06/09 05:30:38;;;;;;;11.83;5.37;;;14.20;1.00;;;;;;5071661;28;20530;-77
2022/06/09 05:33:15;;;;;;;7.07;5.10;;;14.20;1.00;;;;;;5062409;28;20461;-77
2022/06/09 05:36:26;;;;;;;13.10;5.00;;;14.20;1.00;;;;;;5070473;28;20381;-77
2022/06/09 05:44:50;;;;;;;9.80;5.40;;;14.30;1.00;;;;;;5050669;28;20923;-77
2022/06/09 05:45:12;;;;;;;8.20;5.00;;;14.40;1.00;;;;;;5055092;28;20381;-79
2022/06/09 05:47:50;;;;;;;17.17;5.83;;;14.60;1.00;;;;;;5054216;28;20501;-78
2022/06/09 05:57:03;;;;;;;10.27;4.57;;;14.90;1.00;;;;;;5055417;28;20948;-80
2022/06/09 06:00:03;;;;;;;4.10;3.10;;;14.90;1.00;;;;;;5056307;28;21001;-85
2022/06/09 06:03:02;;;;;;;7.27;3.53;;;15.00;1.00;;;;;;5058090;28;20422;-79
2022/06/09 06:08:21;;;;;;;10.50;3.80;;;15.30;1.00;;;;;;5072455;28;20467;-79
2022/06/09 06:14:08;;;;;;;6.43;2.47;;;15.50;1.00;;;;;;5068628;28;20447;-79
2022/06/09 06:23:24;;;;;;;6.70;2.70;;;15.90;1.00;;;;;;5050574;28;20873;-80
2022/06/09 06:29:16;;;;;;;6.83;2.97;;;16.20;1.00;;;;;;5055308;28;20383;-80
2022/06/09 06:45:27;;;;;;;7.10;2.40;;;16.80;99.90;;;;;;5055051;28;20413;-80
2022/06/09 06:48:38;;;;;;;15.93;2.60;;;16.80;99.90;;;;;;5064829;28;20439;-81
2022/06/09 06:51:15;;;;;;;10.53;2.33;;;17.10;99.90;;;;;;5058911;28;20473;-81
2022/06/09 06:57:21;;;;;;;5.47;2.73;;;17.30;99.90;;;;;;5054699;28;20404;-81
2022/06/09 07:00:38;;;;;;;7.67;1.97;;;17.80;99.90;;;;;;5064102;28;20410;-81
2022/06/09 07:03:32;;;;;;;9.13;2.43;;;18.30;99.90;;;;;;5058819;28;20411;-80
2022/06/09 07:06:15;;;;;;;6.70;2.20;;;18.90;99.90;;;;;;5034378;28;20433;-82
2022/06/09 07:12:03;;;;;;;5.00;2.00;;;18.60;99.90;;;;;;5059832;28;20516;-82
2022/06/09 07:14:45;;;;;;;6.63;2.10;;;18.60;99.90;;;;;;5046460;28;20854;-86
2022/06/09 07:17:11;;;;;;;10.63;2.37;;;18.70;99.90;;;;;;5057034;28;20460;-87
2022/06/09 07:20:32;;;;;;;5.23;1.93;;;18.90;99.90;;;;;;5059648;28;20945;-85
2022/06/09 07:23:33;;;;;;;17.80;2.20;;;19.00;99.90;;;;;;5036518;28;20413;-84
2022/06/09 07:26:32;;;;;;;10.63;2.30;;;19.10;99.90;;;;;;5030912;28;20418;-80
2022/06/09 07:32:21;;;;;;;5.97;2.20;;;19.10;99.90;;;;;;5051015;28;20499;-81
2022/06/09 07:35:32;;;;;;;5.70;2.30;;;19.10;99.90;;;;;;5053297;28;20904;-83
2022/06/09 07:37:58;;;;;;;5.70;2.17;;;19.20;99.90;;;;;;5045404;28;20548;-80
2022/06/09 07:40:35;;;;;;;10.50;1.90;;;19.30;99.90;;;;;;5052191;28;20504;-78
2022/06/09 07:43:02;;;;;;;10.53;2.27;;;19.10;99.90;;;;;;5068183;28;20190;-82
2022/06/09 07:45:29;;;;;;;7.67;2.17;;;19.10;99.90;;;;;;5053273;28;20400;-79
2022/06/09 07:47:55;;;;;;;5.60;1.90;;;19.00;99.90;;;;;;5052997;28;20429;-80
2022/06/09 07:50:21;;;;;;;5.20;2.20;;;19.00;99.90;;;;;;5051171;28;20437;-80
2022/06/09 07:52:57;;;;;;;14.47;2.77;;;19.10;99.90;;;;;;5059850;28;20461;-77
2022/06/09 07:55:27;;;;;;;3.63;1.90;;;19.20;99.90;;;;;;5069025;28;20444;-77
2022/06/09 07:58:14;;;;;;;4.67;2.43;;;19.30;99.90;;;;;;5053250;28;20422;-77
2022/06/09 08:04:56;;;;;;;5.00;2.03;;;19.60;99.90;;;;;;5062718;28;20409;-82
2022/06/09 08:07:33;;;;;;;5.77;1.93;;;20.40;99.90;;;;;;5068069;28;20420;-80
2022/06/09 08:10:32;;;;;;;12.87;2.60;;;20.60;99.90;;;;;;5066704;28;20410;-81
2022/06/09 08:13:32;;;;;;;4.80;1.97;;;21.20;99.90;;;;;;5055647;28;20454;-81
2022/06/09 08:19:20;;;;;;;7.50;1.90;;;20.60;99.90;;;;;;5059298;28;20767;-81
2022/06/09 08:21:45;;;;;;;4.87;1.80;;;20.40;99.90;;;;;;5062759;28;20418;-80
2022/06/09 08:24:12;;;;;;;13.07;2.03;;;20.40;99.90;;;;;;5062357;28;20185;-82
2022/06/09 08:26:37;;;;;;;6.47;1.93;;;20.30;99.90;;;;;;5061813;28;20220;-80
2022/06/09 08:29:04;;;;;;;6.13;3.00;;;20.20;99.90;;;;;;5066799;28;20464;-80
2022/06/09 08:31:30;;;;;;;10.10;2.00;;;20.20;99.90;;;;;;5081152;28;20207;-84
2022/06/09 08:33:55;;;;;;;6.87;2.13;;;20.10;99.90;;;;;;5031770;28;20850;-83
2022/06/09 08:36:21;;;;;;;2.37;1.63;;;20.40;99.90;;;;;;5070993;28;20175;-83
2022/06/09 08:38:48;;;;;;;2.90;1.53;;;20.40;99.90;;;;;;5055841;28;20220;-83
2022/06/09 08:41:23;;;;;;;15.90;2.30;;;20.50;99.90;;;;;;5057510;28;20629;-84
2022/06/09 08:44:13;;;;;;;5.17;1.67;;;20.80;99.90;;;;;;5046110;28;20566;-84
2022/06/09 08:46:53;;;;;;;9.13;2.43;;;20.90;99.90;;;;;;5063956;28;20429;-90
2022/06/09 08:49:27;;;;;;;13.33;1.60;;;20.60;99.90;;;;;;5067604;28;20508;-91
2022/06/09 08:51:57;;;;;;;4.33;1.40;;;20.90;99.90;;;;;;5055081;28;20548;-92
2022/06/09 08:54:29;;;;;;;3.93;1.70;;;20.80;99.90;;;;;;5085768;28;20427;-78
2022/06/09 08:56:57;;;;;;;8.10;1.57;;;20.70;99.90;;;;;;5058943;28;20429;-88
2022/06/09 08:59:28;;;;;;;2.73;1.40;;;20.80;99.90;;;;;;5082453;28;20467;-87
2022/06/09 09:01:59;;;;;;;2.40;1.63;;;20.70;99.90;;;;;;5040628;28;20453;-83
2022/06/09 09:04:33;;;;;;;2.10;1.13;;;20.90;99.90;;;;;;5075400;28;20415;-82
2022/06/09 09:07:16;;;;;;;8.70;1.67;;;20.90;99.90;;;;;;5063903;28;20429;-82
2022/06/09 09:09:45;;;;;;;2.70;1.57;;;21.00;99.90;;;;;;5048490;28;20415;-79
2022/06/09 09:12:25;;;;;;;4.10;1.77;;;20.90;99.90;;;;;;5067533;28;20428;-80
2022/06/09 09:15:14;;;;;;;4.10;1.70;;;20.80;99.90;;;;;;5052981;28;20458;-81
2022/06/09 09:17:52;;;;;;;6.40;1.30;;;21.10;99.90;;;;;;5054171;28;20410;-80
2022/06/09 09:20:27;;;;;;;4.23;1.47;;;21.00;99.90;;;;;;5072163;28;21172;-80
2022/06/09 09:23:13;;;;;;;2.80;1.40;;;21.20;99.90;;;;;;5064775;28;20430;-81
2022/06/09 09:26:09;;;;;;;12.97;1.80;;;21.60;99.90;;;;;;5053852;28;20502;-81
2022/06/09 09:28:54;;;;;;;4.87;1.60;;;21.70;99.90;;;;;;5058800;28;20420;-81
2022/06/09 09:31:44;;;;;;;4.20;1.67;;;21.90;99.90;;;;;;5058056;28;20458;-83
2022/06/09 09:34:18;;;;;;;3.30;1.30;;;22.20;99.90;;;;;;5078796;28;20871;-83
2022/06/09 09:36:49;;;;;;;27.97;1.97;;;21.90;99.90;;;;;;5042723;28;20391;-83
2022/06/09 09:39:37;;;;;;;5.97;1.47;;;21.70;99.90;;;;;;5056805;28;20435;-85
2022/06/09 09:42:16;;;;;;;4.30;1.57;;;21.80;99.90;;;;;;5032289;28;20407;-84
2022/06/09 09:45:02;;;;;;;2.30;1.83;;;22.00;99.90;;;;;;5012826;28;20431;-86
2022/06/09 09:47:31;;;;;;;5.70;2.00;;;22.00;99.90;;;;;;4998141;28;20435;-85
2022/06/09 09:50:12;;;;;;;4.40;2.10;;;21.70;99.90;;;;;;5008112;28;20414;-86
2022/06/09 09:52:43;;;;;;;3.50;1.80;;;21.30;99.90;;;;;;4993526;28;20472;-86
2022/06/09 09:55:29;;;;;;;8.73;2.10;;;20.80;99.90;;;;;;5015899;28;20519;-84
2022/06/09 09:58:14;;;;;;;8.13;2.50;;;20.30;99.90;;;;;;5032557;28;20502;-82
2022/06/09 10:00:40;;;;;;;7.73;3.20;;;19.90;99.90;;;;;;5014073;28;20450;-80
2022/06/09 10:09:11;;;;;;;9.87;2.87;;;19.30;99.90;;;;;;5011659;28;20430;-81
2022/06/09 10:11:53;;;;;;;12.70;2.83;;;19.60;99.90;;;;;;5027093;28;20489;-82
2022/06/09 10:14:31;;;;;;;7.53;3.13;;;19.80;99.90;;;;;;5017324;28;20439;-82
2022/06/09 10:16:57;;;;;;;11.37;3.10;;;19.80;99.90;;;;;;5022038;28;20438;-82
2022/06/09 10:19:28;;;;;;;7.87;3.00;;;20.10;99.90;;;;;;5015756;28;20492;-82
2022/06/09 10:21:56;;;;;;;7.80;2.93;;;20.10;99.90;;;;;;5059617;28;20444;-81
2022/06/09 10:24:41;;;;;;;7.33;2.93;;;20.30;99.90;;;;;;5070306;28;20405;-81
2022/06/09 10:27:09;;;;;;;8.63;2.60;;;20.30;99.90;;;;;;5064128;28;20396;-82
2022/06/09 10:30:01;;;;;;;4.33;2.40;;;20.30;99.90;;;;;;5060685;28;20440;-81
2022/06/09 10:32:49;;;;;;;4.20;2.20;;;20.00;99.90;;;;;;5061141;28;20457;-82
2022/06/09 10:35:54;;;;;;;6.33;2.80;;;19.70;99.90;;;;;;5042632;28;20397;-83
2022/06/09 10:38:49;;;;;;;8.70;2.30;;;19.40;99.90;;;;;;5053022;28;20441;-82
2022/06/09 10:41:22;;;;;;;4.93;2.20;;;19.20;99.90;;;;;;5038351;28;20496;-82
2022/06/09 10:44:02;;;;;;;3.53;2.33;;;19.30;99.90;;;;;;5030709;28;20427;-82
2022/06/09 10:55:59;;;;;;;3.50;2.00;;;20.00;99.90;;;;;;5025038;28;20425;-80
2022/06/09 10:58:34;;;;;;;9.80;2.50;;;20.10;99.90;;;;;;5037032;28;20501;-81
2022/06/09 11:01:00;;;;;;;6.77;2.20;;;20.20;99.90;;;;;;5042274;28;20442;-82
2022/06/09 11:03:30;;;;;;;7.70;2.90;;;19.90;99.90;;;;;;5035508;28;20430;-82
2022/06/09 11:05:58;;;;;;;4.13;2.30;;;19.90;99.90;;;;;;5030151;28;20885;-82
2022/06/09 11:09:01;;;;;;;3.20;2.07;;;20.20;99.90;;;;;;5030822;28;20419;-82
2022/06/09 11:11:26;;;;;;;4.33;2.20;;;20.40;99.90;;;;;;5042016;28;20992;-83
2022/06/09 11:14:25;;;;;;;3.63;2.30;;;20.50;99.90;;;;;;5043461;28;20454;-83
2022/06/09 11:17:13;;;;;;;7.17;2.90;;;20.70;99.90;;;;;;5031606;28;20188;-83
2022/06/09 11:20:05;;;;;;;4.63;2.20;;;20.70;99.90;;;;;;5063468;28;20415;-83
2022/06/09 11:22:52;;;;;;;6.23;2.57;;;20.50;99.90;;;;;;5052508;28;20491;-84
2022/06/09 11:25:40;;;;;;;7.30;1.77;;;20.60;99.90;;;;;;5058927;28;20843;-82
2022/06/09 11:28:31;;;;;;;4.90;2.10;;;20.50;99.90;;;;;;5072830;28;20415;-82
2022/06/09 11:31:27;;;;;;;5.67;2.40;;;20.80;99.90;;;;;;5052764;28;20463;-81
2022/06/09 11:34:14;;;;;;;5.03;2.50;;;21.40;99.90;;;;;;5025104;28;20462;-80
2022/06/09 11:36:57;;;;;;;6.37;2.17;;;22.30;99.90;;;;;;5057741;28;20438;-80
2022/06/09 11:39:46;;;;;;;5.50;2.10;;;22.60;99.90;;;;;;5049691;28;20429;-81
2022/06/09 11:42:44;;;;;;;5.73;1.90;;;22.80;99.90;;;;;;5072844;28;20432;-82
2022/06/09 11:45:26;;;;;;;4.20;1.90;;;22.90;99.90;;;;;;5009842;28;20429;-82
2022/06/09 11:48:10;;;;;;;4.17;2.00;;;22.50;99.90;;;;;;5018997;28;20425;-82
2022/06/09 11:51:03;;;;;;;5.17;2.60;;;22.60;99.90;;;;;;5019285;28;20938;-82
2022/06/09 11:53:44;;;;;;;3.37;1.83;;;22.30;99.90;;;;;;5019384;28;20467;-82
2022/06/09 11:56:33;;;;;;;4.40;2.00;;;22.00;99.90;;;;;;4991711;28;20956;-84
2022/06/09 11:59:00;;;;;;;2.50;2.13;;;21.60;99.90;;;;;;5006345;28;20978;-83
2022/06/09 12:01:38;;;;;;;6.47;1.93;;;21.30;99.90;;;;;;5012623;28;20784;-83
2022/06/09 12:04:41;;;;;;;6.67;2.10;;;21.00;99.90;;;;;;5027559;28;20791;-83
2022/06/09 12:07:39;;;;;;;3.77;2.03;;;21.10;99.90;;;;;;5011758;28;20437;-83
2022/06/09 12:10:33;;;;;;;2.73;2.20;;;21.00;99.90;;;;;;5011517;28;20410;-83
2022/06/09 12:17:05;;;;;;;8.37;3.00;;;20.50;99.90;;;;;;5006703;28;20448;-82
2022/06/09 12:20:08;;;;;;;6.63;2.50;;;20.40;99.90;;;;;;5010747;28;20468;-82
2022/06/09 12:23:11;;;;;;;5.40;2.80;;;20.50;99.90;;;;;;5070744;28;20488;-82
2022/06/09 12:26:10;;;;;;;6.07;2.83;;;20.40;99.90;;;;;;5051518;28;20900;-82
2022/06/09 12:28:52;;;;;;;5.10;2.63;;;20.50;99.90;;;;;;5066546;28;20421;-83
2022/06/09 12:35:04;;;;;;;11.87;2.97;;;21.10;99.90;;;;;;5052112;28;20484;-82
2022/06/09 12:38:20;;;;;;;3.37;2.10;;;21.50;99.90;;;;;;5024941;28;20419;-82
2022/06/09 12:47:29;;;;;;;3.10;2.30;;;22.40;99.90;;;;;;5055182;28;20408;-83
2022/06/09 12:49:58;;;;;;;4.70;2.60;;;22.70;99.90;;;;;;5061127;28;20770;-85
2022/06/09 12:52:32;;;;;;;8.50;2.40;;;22.70;99.90;;;;;;5058786;28;20208;-82
2022/06/09 12:58:35;;;;;;;7.60;2.10;;;23.00;99.90;;;;;;5061162;28;20468;-82
2022/06/09 13:04:18;;;;;;;5.13;2.00;;;23.50;99.90;;;;;;5064359;28;20463;-82
2022/06/09 13:06:47;;;;;;;6.00;2.07;;;23.20;99.90;;;;;;5075463;28;20501;-81
2022/06/09 13:16:03;;;;;;;4.30;1.50;;;24.40;99.90;;;;;;5054011;28;20447;-82
2022/06/09 13:18:34;;;;;;;2.40;1.40;;;24.00;99.90;;;;;;5050784;28;20471;-83
2022/06/09 13:24:32;;;;;;;2.40;1.33;;;24.00;99.90;;;;;;5047028;28;20451;-81
2022/06/09 13:27:00;;;;;;;2.00;1.40;;;23.90;99.90;;;;;;5057432;28;20430;-82
2022/06/09 13:30:00;;;;;;;4.80;1.57;;;23.80;99.90;;;;;;5063904;28;20426;-82
2022/06/09 13:32:50;;;;;;;3.73;1.23;;;23.70;99.90;;;;;;5063866;28;20452;-83
2022/06/09 13:35:28;;;;;;;9.03;1.90;;;23.60;99.90;;;;;;5044458;28;20419;-82
2022/06/09 13:38:23;;;;;;;7.00;1.90;;;23.60;99.90;;;;;;5066252;28;20424;-87
2022/06/09 13:54:28;;;;;;;5.47;2.10;;;23.30;99.90;;;;;;4998953;28;20460;-83
2022/06/09 14:00:23;;;;;;;7.80;2.13;;;23.10;99.90;;;;;;5000209;28;20531;-80
2022/06/09 14:06:16;;;;;;;4.77;2.07;;;23.20;99.90;;;;;;5012970;28;20438;-84
2022/06/09 14:15:27;;;;;;;4.63;2.33;;;23.70;99.90;;;;;;4991218;28;20463;-86
2022/06/09 14:17:54;;;;;;;4.27;1.80;;;24.00;99.90;;;;;;5058940;28;20406;-75
2022/06/09 14:20:51;;;;;;;2.13;1.40;;;23.90;99.90;;;;;;5055920;28;20433;-75
2022/06/09 14:23:31;;;;;;;6.23;1.80;;;24.10;99.90;;;;;;5062052;28;20444;-75
2022/06/09 14:26:21;;;;;;;3.60;2.00;;;24.40;99.90;;;;;;5047451;28;20447;-74
2022/06/09 14:28:57;;;;;;;3.67;1.50;;;24.60;99.90;;;;;;5012417;28;20466;-75
2022/06/09 14:31:24;;;;;;;3.37;1.60;;;24.60;99.90;;;;;;5019783;28;20438;-74
2022/06/09 14:33:51;;;;;;;2.80;1.50;;;24.50;99.90;;;;;;5013120;28;20426;-82
2022/06/09 14:36:57;;;;;;;3.77;1.80;;;24.60;99.90;;;;;;5027375;28;20422;-81
2022/06/09 14:39:33;;;;;;;2.93;1.40;;;24.60;99.90;;;;;;5013878;28;20422;-83
2022/06/09 14:42:15;;;;;;;1.73;1.20;;;24.60;99.90;;;;;;5023657;28;20429;-82
2022/06/09 14:45:03;;;;;;;1.20;1.00;;;24.50;99.90;;;;;;5003016;28;20434;-82
2022/06/09 14:48:03;;;;;;;1.90;0.90;;;24.40;99.90;;;;;;5029654;28;20771;-85
2022/06/09 14:50:56;;;;;;;1.20;0.87;;;24.20;99.90;;;;;;5024152;28;20536;-78
2022/06/09 14:53:24;;;;;;;2.43;1.10;;;24.30;99.90;;;;;;5016907;28;20470;-78
2022/06/09 14:55:50;;;;;;;2.37;0.90;;;24.50;99.90;;;;;;5031402;28;20426;-78
2022/06/09 14:58:19;;;;;;;1.67;1.20;;;24.60;99.90;;;;;;5025682;28;20948;-78
2022/06/09 15:00:46;;;;;;;1.80;1.10;;;25.10;99.90;;;;;;5010826;28;20453;-79
2022/06/09 15:03:12;;;;;;;3.30;1.50;;;25.30;99.90;;;;;;5021894;28;20846;-79
2022/06/09 15:05:38;;;;;;;1.80;1.30;;;25.90;99.90;;;;;;5036142;28;20791;-78
2022/06/09 15:08:21;;;;;;;3.67;1.40;;;26.90;99.90;;;;;;5062267;28;20427;-79
2022/06/09 15:24:15;;;;;;;6.93;1.67;;;27.10;99.90;;;;;;5044125;28;20393;-87
2022/06/09 15:27:26;;;;;;;10.67;1.93;;;26.70;99.90;;;;;;5070083;28;20433;-89
2022/06/09 15:29:57;;;;;;;5.77;1.90;;;26.40;99.90;;;;;;5050515;28;20416;-87
2022/06/09 15:35:45;;;;;;;4.43;2.63;;;25.90;99.90;;;;;;5074244;28;20375;-85
2022/06/09 15:41:33;;;;;;;8.47;2.47;;;25.60;99.90;;;;;;5054225;28;20203;-87
2022/06/09 15:54:32;;;;;;;3.87;1.63;;;30.00;99.90;;;;;;5058161;28;20481;-78
2022/06/09 16:00:56;;;;;;;8.10;2.37;;;30.70;99.90;;;;;;5043922;28;20773;-79
2022/06/09 16:06:44;;;;;;;6.10;2.07;;;30.90;99.90;;;;;;5062293;28;20415;-78
2022/06/09 16:12:33;;;;;;;2.30;1.47;;;31.30;99.90;;;;;;5068759;28;20242;-78
2022/06/09 16:15:21;;;;;;;5.10;2.00;;;31.70;99.90;;;;;;5053049;28;20921;-79
2022/06/09 16:18:04;;;;;;;3.67;1.57;;;33.40;99.90;;;;;;5053344;28;20391;-79
2022/06/09 16:20:42;;;;;;;5.57;1.40;;;34.40;99.90;;;;;;5056402;28;20429;-80
2022/06/09 16:23:26;;;;;;;6.13;1.20;;;35.20;99.90;;;;;;5061157;28;20418;-78
2022/06/09 16:26:03;;;;;;;8.13;1.40;;;36.50;99.90;;;;;;5059960;28;20409;-78
2022/06/09 16:28:33;;;;;;;3.80;1.30;;;37.00;99.90;;;;;;5061746;28;20924;-80
2022/06/09 16:31:35;;;;;;;4.03;1.53;;;36.80;99.90;;;;;;5052727;28;20402;-77
2022/06/09 16:34:02;;;;;;;2.40;1.03;;;35.90;99.90;;;;;;5042475;28;20422;-78
2022/06/09 16:39:50;;;;;;;2.97;1.00;;;37.20;99.90;;;;;;5070331;28;20455;-87